Time;durP1;ratioP1;P1;durP2;ratioP2;P2;SDS_P1;SDS_P2;PMS_P1;PMS_P2;Temp;Humidity;BMP_temperature;BMP_pressure;BME280_temperature;BME280_humidity;BME280_pressure;Samples;Min_cycle;Max_cycle;Signal;HPM_P1;HPM_P2
2023/10/15 00:09:01;;;;;;;21.60;11.10;;;22.40;86.70;;;;;;6265022;22;20475;-79
2023/10/15 00:11:27;;;;;;;17.48;9.40;;;22.30;86.20;;;;;;6246548;23;20419;-79
2023/10/15 00:13:53;;;;;;;18.30;9.40;;;22.40;86.60;;;;;;6246789;23;20027;-78
2023/10/15 00:16:20;;;;;;;13.55;8.60;;;22.40;86.90;;;;;;6247049;23;20414;-80
2023/10/15 00:18:46;;;;;;;20.70;10.43;;;22.40;87.20;;;;;;6246535;23;20071;-78
2023/10/15 00:21:12;;;;;;;15.95;8.82;;;22.40;87.50;;;;;;6246001;23;20547;-79
2023/10/15 00:23:46;;;;;;;15.52;9.43;;;22.40;87.70;;;;;;6246080;23;19996;-79
2023/10/15 00:26:14;;;;;;;16.90;9.40;;;22.40;87.90;;;;;;6246682;23;20311;-78
2023/10/15 00:28:40;;;;;;;20.83;8.98;;;22.40;87.80;;;;;;6246312;23;20337;-78
2023/10/15 00:31:11;;;;;;;17.95;8.82;;;22.40;88.00;;;;;;6247103;23;20039;-79
2023/10/15 00:33:42;;;;;;;17.60;8.88;;;22.50;88.30;;;;;;6246736;23;19996;-79
2023/10/15 00:36:17;;;;;;;19.42;9.18;;;22.50;88.60;;;;;;6246622;23;20434;-79
2023/10/15 00:38:44;;;;;;;18.65;9.75;;;22.40;88.60;;;;;;6246246;23;20355;-80
2023/10/15 00:41:13;;;;;;;22.45;9.50;;;22.40;88.60;;;;;;6246168;23;20012;-80
2023/10/15 00:44:09;;;;;;;18.17;9.30;;;22.40;89.10;;;;;;6245936;23;20067;-79
2023/10/15 00:46:37;;;;;;;17.02;9.18;;;22.40;88.50;;;;;;6214353;23;20008;-78
2023/10/15 00:49:14;;;;;;;17.23;10.45;;;22.40;88.70;;;;;;6245754;23;20406;-78
2023/10/15 00:51:41;;;;;;;18.92;9.98;;;22.40;88.30;;;;;;6246081;23;20027;-78
2023/10/15 00:54:14;;;;;;;20.38;10.18;;;22.30;88.20;;;;;;6247556;23;20000;-78
2023/10/15 00:56:44;;;;;;;18.45;10.20;;;22.30;88.30;;;;;;6265600;22;19999;-79
2023/10/15 00:59:18;;;;;;;19.67;10.98;;;22.30;88.20;;;;;;6246149;23;20075;-78
2023/10/15 01:02:22;;;;;;;25.15;10.85;;;22.20;87.90;;;;;;6245510;23;20004;-78
2023/10/15 01:04:36;;;;;;;19.58;11.25;;;22.20;87.90;;;;;;6241255;23;20492;-79
2023/10/15 01:07:51;;;;;;;17.50;10.90;;;22.10;87.70;;;;;;6245464;23;20000;-79
2023/10/15 01:09:49;;;;;;;23.42;11.55;;;22.10;87.60;;;;;;6216188;23;20514;-79
2023/10/15 01:12:33;;;;;;;17.88;10.82;;;22.20;87.40;;;;;;6215587;23;20043;-78
2023/10/15 01:14:59;;;;;;;;;;;22.20;87.70;;;;;;6215802;23;20088;-79
2023/10/15 01:17:36;;;;;;;21.25;12.00;;;22.10;86.70;;;;;;6188818;23;19899;-79
2023/10/15 01:20:06;;;;;;;20.98;12.00;;;22.00;86.80;;;;;;6215470;23;20411;-79
2023/10/15 01:22:32;;;;;;;17.08;10.90;;;22.00;86.90;;;;;;6215261;23;20138;-79
2023/10/15 01:25:16;;;;;;;19.05;10.85;;;22.00;86.60;;;;;;6216016;23;20036;-76
2023/10/15 01:27:43;;;;;;;20.77;11.82;;;22.00;86.50;;;;;;6215445;23;20084;-79
2023/10/15 01:30:17;;;;;;;20.55;11.48;;;22.00;86.30;;;;;;6215710;23;20008;-78
2023/10/15 01:32:44;;;;;;;22.55;11.52;;;21.90;86.20;;;;;;6215171;23;19997;-79
2023/10/15 01:35:10;;;;;;;19.92;11.23;;;21.90;86.10;;;;;;6214991;23;20088;-78
2023/10/15 01:37:37;;;;;;;24.20;12.02;;;21.90;86.20;;;;;;6215040;23;19997;-79
2023/10/15 01:42:40;;;;;;;17.65;10.05;;;21.90;86.00;;;;;;6216532;23;20391;-77
2023/10/15 01:47:37;;;;;;;17.52;10.75;;;21.90;85.70;;;;;;6215537;23;20013;-78
2023/10/15 01:50:08;;;;;;;19.52;11.48;;;21.80;85.60;;;;;;6215334;23;20004;-77
2023/10/15 01:52:41;;;;;;;19.23;10.65;;;21.80;85.60;;;;;;6215483;23;20019;-78
2023/10/15 01:55:07;;;;;;;19.85;10.65;;;21.80;85.60;;;;;;6235764;23;19997;-79
2023/10/15 01:57:36;;;;;;;18.73;9.65;;;21.80;85.60;;;;;;6230030;23;20092;-77
2023/10/15 02:00:12;;;;;;;21.13;10.52;;;21.80;85.50;;;;;;6217639;23;20000;-79
2023/10/15 02:02:38;;;;;;;17.75;9.82;;;21.80;86.10;;;;;;6216007;23;20318;-78
2023/10/15 02:05:04;;;;;;;22.00;10.82;;;21.80;85.70;;;;;;6216346;23;20028;-79
2023/10/15 02:07:31;;;;;;;16.88;10.13;;;21.80;85.70;;;;;;6215907;23;20434;-79
2023/10/15 02:09:57;;;;;;;19.88;10.60;;;21.80;85.60;;;;;;6214797;23;20480;-77
2023/10/15 02:12:23;;;;;;;20.10;9.93;;;21.80;85.50;;;;;;6215545;23;20008;-78
2023/10/15 02:14:49;;;;;;;21.48;10.95;;;21.80;85.50;;;;;;6215283;23;19997;-79
2023/10/15 02:17:18;;;;;;;17.83;9.93;;;21.80;85.40;;;;;;6214992;23;20011;-78
2023/10/15 02:19:44;;;;;;;20.63;10.63;;;21.80;85.70;;;;;;6213088;23;20009;-79
2023/10/15 02:22:14;;;;;;;20.60;10.43;;;21.80;85.90;;;;;;6188069;23;20346;-80
2023/10/15 02:24:48;;;;;;;19.05;10.43;;;21.80;86.00;;;;;;6214650;23;20001;-79
2023/10/15 02:27:23;;;;;;;17.48;10.35;;;21.80;85.70;;;;;;6215035;23;20039;-80
2023/10/15 02:29:50;;;;;;;15.48;9.32;;;21.90;85.80;;;;;;6188329;23;20497;-77
2023/10/15 02:32:30;;;;;;;15.45;10.02;;;21.90;85.80;;;;;;6214888;23;20079;-78
2023/10/15 02:35:05;;;;;;;14.55;9.50;;;21.90;85.70;;;;;;6214961;23;19996;-80
2023/10/15 02:37:31;;;;;;;19.42;10.55;;;21.90;85.70;;;;;;6214629;23;20055;-79
2023/10/15 02:39:58;;;;;;;20.35;11.05;;;21.90;85.90;;;;;;6215055;23;20005;-79
2023/10/15 02:42:30;;;;;;;21.52;10.35;;;21.90;85.90;;;;;;6214756;23;20018;-78
2023/10/15 02:44:58;;;;;;;16.23;10.00;;;21.90;85.90;;;;;;6215062;23;20001;-78
2023/10/15 02:47:48;;;;;;;17.48;9.50;;;21.90;85.80;;;;;;6216120;23;20017;-79
2023/10/15 02:50:23;;;;;;;19.42;10.35;;;21.90;85.90;;;;;;6215874;23;19997;-78
2023/10/15 02:52:49;;;;;;;20.38;9.27;;;21.90;86.20;;;;;;6216368;23;20083;-77
2023/10/15 02:55:15;;;;;;;21.08;10.25;;;22.00;86.20;;;;;;6217019;23;20032;-78
2023/10/15 02:57:42;;;;;;;21.73;11.05;;;22.00;86.20;;;;;;6216928;23;20004;-79
2023/10/15 03:00:28;;;;;;;24.95;9.82;;;22.00;86.00;;;;;;6218794;23;20001;-77
2023/10/15 03:02:54;;;;;;;15.15;9.65;;;22.00;86.00;;;;;;6225951;23;20055;-78
2023/10/15 03:05:30;;;;;;;15.73;10.40;;;22.00;85.80;;;;;;6217322;23;20146;-78
2023/10/15 03:07:59;;;;;;;16.20;9.63;;;22.00;85.80;;;;;;6216971;23;20004;-79
2023/10/15 03:10:44;;;;;;;17.83;9.63;;;22.00;85.60;;;;;;6236563;23;20039;-78
2023/10/15 03:13:14;;;;;;;17.48;10.00;;;22.00;85.60;;;;;;6247179;23;20007;-79
2023/10/15 03:15:48;;;;;;;22.85;9.80;;;22.00;85.40;;;;;;6246831;23;19997;-77
2023/10/15 03:18:15;;;;;;;18.50;9.50;;;22.00;85.50;;;;;;6247175;23;20338;-78
2023/10/15 03:20:49;;;;;;;20.92;9.20;;;22.00;85.40;;;;;;6219915;23;20050;-78
2023/10/15 03:23:17;;;;;;;13.88;9.63;;;22.00;85.50;;;;;;6246758;23;20004;-78
2023/10/15 03:25:43;;;;;;;15.80;9.68;;;22.00;85.40;;;;;;6246573;23;20000;-78
2023/10/15 03:28:11;;;;;;;16.67;8.70;;;22.00;85.60;;;;;;6246271;23;20079;-77
2023/10/15 03:30:44;;;;;;;18.20;9.20;;;22.00;85.90;;;;;;6246145;23;20000;-78
2023/10/15 03:33:11;;;;;;;15.48;9.52;;;22.00;85.90;;;;;;6246952;23;20004;-78
2023/10/15 03:35:45;;;;;;;18.20;9.35;;;21.90;85.90;;;;;;6246627;23;20079;-78
2023/10/15 03:38:14;;;;;;;;;;;21.90;86.30;;;;;;6247087;23;19996;-78
2023/10/15 03:40:47;;;;;;;16.63;9.25;;;21.90;86.30;;;;;;6246430;23;19906;-78
2023/10/15 03:43:16;;;;;;;15.52;9.52;;;22.00;85.90;;;;;;6246218;23;20490;-79
2023/10/15 03:45:51;;;;;;;19.05;8.75;;;22.00;85.70;;;;;;6246781;23;20000;-78
2023/10/15 03:48:21;;;;;;;15.25;9.07;;;22.00;86.30;;;;;;6246068;23;20046;-78
2023/10/15 03:50:53;;;;;;;18.45;8.95;;;22.00;86.20;;;;;;6246387;23;20031;-77
2023/10/15 03:53:28;;;;;;;17.15;8.88;;;22.10;86.40;;;;;;6219658;23;20016;-78
2023/10/15 03:56:01;;;;;;;15.57;8.80;;;22.10;86.60;;;;;;6246022;23;20072;-78
2023/10/15 03:58:28;;;;;;;18.08;8.77;;;22.10;86.80;;;;;;6246924;23;20031;-77
2023/10/15 04:01:20;;;;;;;19.02;8.55;;;22.10;86.50;;;;;;6220223;23;20106;-78
2023/10/15 04:03:47;;;;;;;17.08;8.60;;;22.10;86.60;;;;;;6247339;23;20390;-78
2023/10/15 04:06:14;;;;;;;16.45;8.55;;;22.10;86.70;;;;;;6246341;23;20369;-77
2023/10/15 04:08:59;;;;;;;18.23;9.00;;;22.10;86.60;;;;;;6246605;23;20008;-79
2023/10/15 04:11:29;;;;;;;17.40;8.20;;;22.10;86.70;;;;;;6246455;23;20012;-78
2023/10/15 04:13:56;;;;;;;17.98;8.45;;;22.20;87.10;;;;;;6246309;23;20110;-78
2023/10/15 04:16:23;;;;;;;15.43;8.10;;;22.20;87.30;;;;;;6246854;23;20104;-78
2023/10/15 04:18:49;;;;;;;20.02;8.27;;;22.20;87.80;;;;;;6257536;23;20000;-78
2023/10/15 04:21:19;;;;;;;16.38;8.40;;;22.20;87.80;;;;;;6265125;23;20032;-78
2023/10/15 04:23:52;;;;;;;16.13;8.45;;;22.20;88.30;;;;;;6263442;23;20034;-78
2023/10/15 04:26:22;;;;;;;15.52;8.82;;;22.20;88.20;;;;;;6248938;23;20055;-78
2023/10/15 04:28:52;;;;;;;20.42;9.65;;;22.20;88.60;;;;;;6246978;23;20010;-78
2023/10/15 04:31:22;;;;;;;20.23;7.93;;;22.20;88.70;;;;;;6246261;23;20346;-77
2023/10/15 04:33:55;;;;;;;19.17;12.30;;;22.10;89.30;;;;;;6246175;23;20445;-78
2023/10/15 04:36:22;;;;;;;20.00;12.13;;;22.20;89.50;;;;;;6246376;23;20418;-78
2023/10/15 04:38:57;;;;;;;17.10;9.52;;;22.20;89.70;;;;;;6246281;23;20053;-78
2023/10/15 04:41:23;;;;;;;19.15;8.75;;;22.20;89.80;;;;;;6246264;23;20154;-78
2023/10/15 04:43:48;;;;;;;15.63;7.40;;;22.20;89.90;;;;;;6246264;23;20442;-78
2023/10/15 04:46:17;;;;;;;15.95;8.15;;;22.20;90.00;;;;;;6246324;23;20004;-77
2023/10/15 04:48:47;;;;;;;18.65;8.65;;;22.30;90.20;;;;;;6219741;23;20001;-78
2023/10/15 04:51:13;;;;;;;16.20;7.85;;;22.30;90.30;;;;;;6246847;23;20008;-79
2023/10/15 04:53:48;;;;;;;18.02;7.90;;;22.30;90.30;;;;;;6246039;23;20014;-79
2023/10/15 04:56:14;;;;;;;17.55;7.07;;;22.30;90.40;;;;;;6246266;23;20178;-79
2023/10/15 04:58:40;;;;;;;16.15;7.43;;;22.30;90.40;;;;;;6246798;23;19996;-78
2023/10/15 05:01:07;;;;;;;15.70;7.47;;;22.30;90.60;;;;;;6245959;23;20027;-78
2023/10/15 05:03:33;;;;;;;13.52;7.35;;;22.30;90.60;;;;;;6247897;23;20014;-78
2023/10/15 05:06:03;;;;;;;18.42;7.80;;;22.30;90.60;;;;;;6247953;23;20001;-78
2023/10/15 05:08:29;;;;;;;16.33;8.05;;;22.30;90.80;;;;;;6245608;23;20011;-79
2023/10/15 05:10:55;;;;;;;17.52;7.88;;;22.30;90.70;;;;;;6245717;23;20016;-79
2023/10/15 05:13:21;;;;;;;16.10;7.35;;;22.30;90.80;;;;;;6246069;23;20031;-78
2023/10/15 05:15:48;;;;;;;16.45;7.57;;;22.40;90.90;;;;;;6246367;23;20000;-78
2023/10/15 05:18:15;;;;;;;15.45;7.47;;;22.40;90.90;;;;;;6245933;23;20423;-79
2023/10/15 05:20:42;;;;;;;22.30;7.97;;;22.40;91.00;;;;;;6246047;23;20070;-77
2023/10/15 05:23:08;;;;;;;17.50;8.73;;;22.40;90.90;;;;;;6246380;23;20386;-78
2023/10/15 05:25:34;;;;;;;21.50;8.55;;;22.40;91.00;;;;;;6246456;23;20038;-78
2023/10/15 05:27:59;;;;;;;15.45;7.85;;;22.40;91.00;;;;;;6246115;23;20135;-78
2023/10/15 05:30:26;;;;;;;15.63;7.75;;;22.40;91.00;;;;;;6246546;23;20423;-78
2023/10/15 05:32:52;;;;;;;17.38;8.43;;;22.40;91.10;;;;;;6246629;23;20034;-78
2023/10/15 05:35:18;;;;;;;13.27;6.95;;;22.40;91.10;;;;;;6219289;23;20004;-78
2023/10/15 05:37:45;;;;;;;17.98;7.78;;;22.40;91.10;;;;;;6246157;23;20071;-78
2023/10/15 05:40:17;;;;;;;17.83;8.30;;;22.40;91.10;;;;;;6245696;23;20402;-77
2023/10/15 05:42:43;;;;;;;13.95;7.50;;;22.40;91.30;;;;;;6219286;23;20103;-78
2023/10/15 05:45:09;;;;;;;13.65;7.40;;;22.40;91.20;;;;;;6245995;23;20386;-78
2023/10/15 05:47:35;;;;;;;15.65;7.80;;;22.40;91.20;;;;;;6246342;23;20295;-79
2023/10/15 05:50:04;;;;;;;12.05;7.22;;;22.40;91.20;;;;;;6246128;23;20008;-79
2023/10/15 05:52:30;;;;;;;17.63;7.78;;;22.40;91.20;;;;;;6245879;23;20031;-79
2023/10/15 05:54:56;;;;;;;19.40;8.07;;;22.40;91.20;;;;;;6219362;23;20008;-78
2023/10/15 05:57:21;;;;;;;17.73;8.73;;;22.50;91.40;;;;;;6218931;23;20118;-80
2023/10/15 05:59:50;;;;;;;18.67;8.32;;;22.50;91.20;;;;;;6245760;23;20333;-78
2023/10/15 06:02:16;;;;;;;17.95;8.27;;;22.50;91.20;;;;;;6245416;23;20004;-78
2023/10/15 06:04:43;;;;;;;22.23;8.13;;;22.50;91.20;;;;;;6246001;23;20006;-79
2023/10/15 06:07:10;;;;;;;13.02;7.18;;;22.50;91.30;;;;;;6248015;23;20019;-78
2023/10/15 10:42:26;;;;;;;16.55;6.68;;;26.40;75.20;;;;;;6267883;22;20049;-77
2023/10/15 10:45:01;;;;;;;20.15;6.95;;;26.40;74.60;;;;;;6275038;22;20385;-76
2023/10/15 10:47:33;;;;;;;19.35;5.93;;;26.50;75.20;;;;;;6274918;22;20007;-82
2023/10/15 10:50:03;;;;;;;22.00;6.95;;;26.40;74.70;;;;;;6275689;22;20008;-85
2023/10/15 10:52:36;;;;;;;20.40;6.80;;;26.50;75.20;;;;;;6275479;22;19996;-77
2023/10/15 10:55:30;;;;;;;15.45;5.00;;;26.50;74.70;;;;;;6248671;22;20012;-77
2023/10/15 10:57:56;;;;;;;98.85;22.20;;;26.50;72.80;;;;;;6275554;22;20010;-77
2023/10/15 11:00:22;;;;;;;17.55;6.20;;;26.50;74.00;;;;;;6276267;22;19999;-83
2023/10/15 11:02:48;;;;;;;17.50;6.25;;;26.50;74.00;;;;;;6249913;22;20406;-84
2023/10/15 11:05:16;;;;;;;19.80;7.20;;;26.50;73.90;;;;;;6265836;22;20505;-81
2023/10/15 11:07:42;;;;;;;19.63;6.65;;;26.50;74.40;;;;;;6272458;22;20011;-82
2023/10/15 11:10:09;;;;;;;19.50;6.25;;;26.50;74.20;;;;;;6277817;22;20000;-83
2023/10/15 11:12:35;;;;;;;19.90;7.03;;;26.50;73.50;;;;;;6277075;22;20008;-78
2023/10/15 11:15:04;;;;;;;19.90;6.68;;;26.60;74.80;;;;;;6272434;22;20014;-76
2023/10/15 11:17:32;;;;;;;17.08;5.40;;;26.60;75.30;;;;;;6245568;22;20357;-73
2023/10/15 11:19:58;;;;;;;18.85;6.05;;;26.60;75.10;;;;;;6277090;22;19996;-76
2023/10/15 11:22:26;;;;;;;21.13;6.38;;;26.70;74.90;;;;;;6279803;22;20007;-74
2023/10/15 11:24:51;;;;;;;18.30;6.38;;;26.70;75.10;;;;;;6274163;22;20329;-72
2023/10/15 11:27:19;;;;;;;20.25;6.32;;;26.80;75.20;;;;;;6269426;22;20057;-73
2023/10/15 11:29:45;;;;;;;20.55;5.78;;;26.80;74.70;;;;;;6276558;22;20008;-72
2023/10/15 11:32:11;;;;;;;21.50;5.85;;;26.90;74.80;;;;;;6276921;22;20004;-73
2023/10/15 11:34:39;;;;;;;17.05;7.07;;;26.90;73.90;;;;;;6275453;22;20322;-76
2023/10/15 11:37:09;;;;;;;25.13;8.57;;;27.00;74.80;;;;;;6267243;22;20117;-74
2023/10/15 11:39:38;;;;;;;16.77;6.20;;;27.00;74.00;;;;;;6277521;22;20010;-73
2023/10/15 11:42:04;;;;;;;17.10;5.78;;;27.10;73.50;;;;;;6276930;22;21038;-79
2023/10/15 11:44:33;;;;;;;16.08;6.03;;;27.10;73.60;;;;;;6275347;22;20016;-75
2023/10/15 11:47:08;;;;;;;18.77;6.50;;;27.10;72.40;;;;;;6265705;22;20003;-76
2023/10/15 11:49:35;;;;;;;19.95;6.13;;;27.20;72.50;;;;;;6276661;22;19999;-76
2023/10/15 11:52:05;;;;;;;19.00;5.68;;;27.10;72.10;;;;;;6277484;22;20004;-78
2023/10/15 11:54:31;;;;;;;16.92;6.10;;;27.10;73.10;;;;;;6276885;22;20343;-78
2023/10/15 11:57:04;;;;;;;17.73;6.45;;;27.10;72.00;;;;;;6265424;22;20042;-80
2023/10/15 11:59:31;;;;;;;20.73;6.68;;;27.00;73.30;;;;;;6277686;22;19995;-75
2023/10/15 12:02:01;;;;;;;17.10;6.68;;;27.00;72.60;;;;;;6275703;22;20090;-74
2023/10/15 12:04:28;;;;;;;21.30;6.22;;;26.90;74.30;;;;;;6274717;22;19999;-72
2023/10/15 12:06:53;;;;;;;21.38;6.05;;;26.90;73.60;;;;;;6269246;22;20011;-82
2023/10/15 12:09:24;;;;;;;33.78;14.80;;;27.00;73.60;;;;;;6275815;22;19995;-76
2023/10/15 12:11:53;;;;;;;27.70;12.30;;;27.10;73.50;;;;;;6277007;22;20137;-76
2023/10/15 12:14:19;;;;;;;17.20;6.47;;;27.10;74.00;;;;;;6247511;22;20004;-75
2023/10/15 12:16:45;;;;;;;22.02;9.60;;;27.10;72.90;;;;;;6242008;22;20046;-73
2023/10/15 12:19:11;;;;;;;20.10;6.70;;;27.00;73.10;;;;;;6276221;22;20004;-73
2023/10/15 12:21:38;;;;;;;21.52;7.65;;;27.10;73.30;;;;;;6275830;22;20012;-75
2023/10/15 12:24:08;;;;;;;23.38;8.13;;;27.10;73.30;;;;;;6274770;22;20058;-76
2023/10/15 12:26:35;;;;;;;21.05;6.60;;;27.00;72.90;;;;;;6268767;22;20004;-75
2023/10/15 12:29:03;;;;;;;19.85;6.25;;;27.00;72.90;;;;;;6275792;22;20161;-74
2023/10/15 12:31:30;;;;;;;16.30;5.30;;;26.90;72.70;;;;;;6276584;22;20319;-76
2023/10/15 12:33:56;;;;;;;17.10;5.70;;;26.90;72.50;;;;;;6276403;22;20014;-75
2023/10/15 12:36:22;;;;;;;19.45;6.38;;;26.80;73.00;;;;;;6268221;22;20010;-76
2023/10/15 12:38:48;;;;;;;21.20;5.93;;;26.80;73.10;;;;;;6275985;22;20382;-75
2023/10/15 12:41:14;;;;;;;16.65;5.45;;;26.80;73.00;;;;;;6277116;22;20311;-76
2023/10/15 12:43:40;;;;;;;17.05;5.45;;;26.80;72.70;;;;;;6276279;22;20022;-75
2023/10/15 12:46:07;;;;;;;15.90;5.85;;;26.90;72.70;;;;;;6240990;22;20011;-76
2023/10/15 12:48:33;;;;;;;18.23;6.05;;;26.90;72.70;;;;;;6276819;22;20081;-73
2023/10/15 12:50:59;;;;;;;14.75;5.82;;;27.00;72.90;;;;;;6276513;22;20042;-75
2023/10/15 12:53:25;;;;;;;16.75;6.07;;;27.10;72.50;;;;;;6276282;22;20008;-75
2023/10/15 12:55:51;;;;;;;29.13;7.13;;;27.20;72.30;;;;;;6268806;22;20007;-76
2023/10/15 12:58:17;;;;;;;17.20;5.68;;;27.20;72.20;;;;;;6276434;22;20045;-79
2023/10/15 13:00:43;;;;;;;17.42;5.65;;;27.20;71.80;;;;;;6276725;22;20084;-79
2023/10/15 13:03:10;;;;;;;19.60;4.95;;;27.10;71.80;;;;;;6279937;22;20008;-81
2023/10/15 13:05:36;;;;;;;20.95;5.28;;;27.10;71.70;;;;;;6275212;22;20035;-74
2023/10/15 13:08:03;;;;;;;18.33;5.72;;;27.20;71.60;;;;;;6246077;22;20016;-77
2023/10/15 13:10:29;;;;;;;17.80;5.75;;;27.10;71.30;;;;;;6248291;22;20003;-79
2023/10/15 13:12:54;;;;;;;18.00;5.45;;;27.10;71.40;;;;;;6276116;22;20026;-79
2023/10/15 13:15:21;;;;;;;18.33;5.85;;;27.10;71.70;;;;;;6270007;22;20448;-78
2023/10/15 13:17:48;;;;;;;20.00;5.35;;;27.20;71.90;;;;;;6272576;22;20333;-78
2023/10/15 13:20:17;;;;;;;16.25;4.75;;;27.20;70.90;;;;;;6275545;22;20000;-78
2023/10/15 13:22:43;;;;;;;24.65;5.45;;;27.10;70.90;;;;;;6276033;22;20007;-79
2023/10/15 13:25:11;;;;;;;22.85;5.75;;;27.00;71.00;;;;;;6272135;22;20075;-78
2023/10/15 13:27:40;;;;;;;23.77;5.20;;;27.00;71.20;;;;;;6272175;22;20077;-78
2023/10/15 13:30:09;;;;;;;19.25;4.82;;;26.90;71.30;;;;;;6273951;22;20409;-76
2023/10/15 13:32:35;;;;;;;16.38;4.60;;;26.80;71.30;;;;;;6276918;22;20097;-78
2023/10/15 13:35:01;;;;;;;16.42;4.82;;;26.90;71.40;;;;;;6274053;22;20747;-80
2023/10/15 13:37:27;;;;;;;17.50;5.35;;;26.90;71.60;;;;;;6272204;22;20000;-78
2023/10/15 13:39:56;;;;;;;25.45;5.60;;;26.90;70.90;;;;;;6275413;22;20122;-79
2023/10/15 13:42:21;;;;;;;13.68;4.18;;;26.90;70.90;;;;;;6275775;22;20023;-77
2023/10/15 13:44:49;;;;;;;18.80;5.32;;;26.80;70.00;;;;;;6273751;22;20016;-78
2023/10/15 13:47:15;;;;;;;29.67;9.55;;;26.80;70.90;;;;;;6242625;22;20011;-78
2023/10/15 13:49:41;;;;;;;19.90;4.85;;;26.80;70.50;;;;;;6248353;22;20060;-76
2023/10/15 13:52:06;;;;;;;21.83;5.20;;;26.80;70.50;;;;;;6276350;22;20086;-78
2023/10/15 13:54:33;;;;;;;15.80;4.40;;;26.70;70.50;;;;;;6276353;22;19995;-75
2023/10/15 13:56:59;;;;;;;27.10;6.75;;;26.70;69.80;;;;;;6268074;22;20012;-80
2023/10/15 13:59:25;;;;;;;15.68;4.25;;;26.70;69.90;;;;;;6276208;22;20448;-78
2023/10/15 14:01:51;;;;;;;25.05;7.20;;;26.60;69.90;;;;;;6248464;22;20482;-78
2023/10/15 14:04:17;;;;;;;25.23;7.50;;;26.60;70.30;;;;;;6272891;22;20063;-77
2023/10/15 14:06:44;;;;;;;16.63;4.32;;;26.60;69.90;;;;;;6265449;22;20023;-76
2023/10/15 14:09:14;;;;;;;15.73;4.25;;;26.60;69.90;;;;;;6248716;22;20004;-77
2023/10/15 14:11:41;;;;;;;17.20;4.45;;;26.60;70.10;;;;;;6247977;22;20015;-75
2023/10/15 14:14:07;;;;;;;15.50;3.70;;;26.60;70.00;;;;;;6247437;22;20342;-76
2023/10/15 14:16:33;;;;;;;17.15;3.90;;;26.60;69.90;;;;;;6266937;22;19999;-79
2023/10/15 14:18:59;;;;;;;13.00;3.42;;;26.60;69.60;;;;;;6276290;22;20000;-77
2023/10/15 14:21:25;;;;;;;28.50;4.22;;;26.50;70.00;;;;;;6275889;22;20095;-77
2023/10/15 14:23:51;;;;;;;16.75;3.78;;;26.50;69.90;;;;;;6275492;22;20059;-78
2023/10/15 14:26:17;;;;;;;13.93;3.75;;;26.50;69.90;;;;;;6267264;22;20434;-77
2023/10/15 14:28:43;;;;;;;18.40;4.38;;;26.50;70.10;;;;;;6274984;22;20058;-78
2023/10/15 14:31:09;;;;;;;15.43;3.38;;;26.50;69.90;;;;;;6246356;22;20559;-77
2023/10/15 14:33:35;;;;;;;13.88;3.67;;;26.40;69.70;;;;;;6272772;22;20070;-77
2023/10/15 14:36:06;;;;;;;15.27;3.30;;;26.30;69.30;;;;;;6265974;22;20517;-77
2023/10/15 14:38:32;;;;;;;12.68;3.58;;;26.30;69.50;;;;;;6247263;22;20074;-76
2023/10/15 14:40:58;;;;;;;12.00;3.63;;;26.30;69.30;;;;;;6273667;22;20027;-76
2023/10/15 14:43:24;;;;;;;17.08;4.60;;;26.20;69.20;;;;;;6274488;22;20019;-77
2023/10/15 14:45:50;;;;;;;17.88;3.55;;;26.20;68.90;;;;;;6267036;22;20737;-76
2023/10/15 14:48:17;;;;;;;16.60;3.25;;;26.20;69.00;;;;;;6275932;22;20057;-77
2023/10/15 14:50:44;;;;;;;14.30;3.63;;;26.10;68.70;;;;;;6250713;22;20074;-74
2023/10/15 14:53:10;;;;;;;12.07;3.47;;;26.10;68.60;;;;;;6277628;22;20035;-76
2023/10/15 14:55:36;;;;;;;12.80;2.92;;;26.00;68.50;;;;;;6270966;22;20039;-75
2023/10/15 14:58:05;;;;;;;14.52;3.30;;;26.00;68.50;;;;;;6275029;22;20006;-80
2023/10/15 15:00:31;;;;;;;13.20;3.17;;;25.90;68.40;;;;;;6276140;22;20050;-73
2023/10/15 15:02:58;;;;;;;13.50;3.38;;;25.90;68.20;;;;;;6248014;22;20020;-77
2023/10/15 15:05:24;;;;;;;12.52;3.50;;;25.90;68.40;;;;;;6271295;22;20001;-76
2023/10/15 15:07:50;;;;;;;14.88;3.50;;;25.90;68.20;;;;;;6272495;22;20006;-76
2023/10/15 15:10:15;;;;;;;18.58;3.72;;;25.90;68.20;;;;;;6275494;22;20078;-72
2023/10/15 15:12:41;;;;;;;19.00;3.50;;;25.90;68.70;;;;;;6250206;22;20007;-77
2023/10/15 15:15:07;;;;;;;17.95;3.85;;;25.90;68.80;;;;;;6273678;22;20000;-76
2023/10/15 15:17:34;;;;;;;12.73;3.85;;;25.80;68.30;;;;;;6272086;22;20465;-75
2023/10/15 15:20:00;;;;;;;24.05;3.72;;;25.80;68.60;;;;;;6277058;22;19999;-76
2023/10/15 15:22:26;;;;;;;15.88;3.35;;;25.80;68.50;;;;;;6249870;22;20015;-76
2023/10/15 15:24:52;;;;;;;19.27;3.88;;;25.80;68.70;;;;;;6274437;22;19999;-75
2023/10/15 15:27:18;;;;;;;16.40;3.70;;;25.80;68.30;;;;;;6271390;22;20011;-73
2023/10/15 15:29:47;;;;;;;17.00;3.72;;;25.90;68.50;;;;;;6275410;22;20000;-77
2023/10/15 15:32:13;;;;;;;19.80;4.13;;;25.90;68.50;;;;;;6276400;22;20006;-74
2023/10/15 15:34:38;;;;;;;15.75;3.17;;;25.90;68.80;;;;;;6276013;22;20000;-74
2023/10/15 15:37:04;;;;;;;21.08;4.05;;;25.90;68.80;;;;;;6269672;22;20000;-77
2023/10/15 15:39:30;;;;;;;18.23;3.88;;;25.80;68.90;;;;;;6276683;22;20471;-75
2023/10/15 15:41:55;;;;;;;17.98;4.15;;;25.70;68.50;;;;;;6276724;22;20077;-74
2023/10/15 15:44:22;;;;;;;17.85;3.17;;;25.70;68.80;;;;;;6276618;22;20026;-77
2023/10/15 15:46:48;;;;;;;16.15;3.80;;;25.60;68.70;;;;;;6268607;22;20326;-76
2023/10/15 15:49:14;;;;;;;18.33;3.83;;;25.60;68.80;;;;;;6249513;22;20402;-75
2023/10/15 15:51:40;;;;;;;18.02;4.07;;;25.60;69.00;;;;;;6276801;22;20006;-76
2023/10/15 15:54:06;;;;;;;22.75;4.22;;;25.50;68.70;;;;;;6277186;22;19999;-75
2023/10/15 15:56:34;;;;;;;20.42;4.72;;;25.50;68.90;;;;;;6268864;22;20007;-77
2023/10/15 15:59:01;;;;;;;18.25;4.05;;;25.50;69.00;;;;;;6274625;22;20027;-76
2023/10/15 16:01:27;;;;;;;15.70;3.17;;;25.40;69.60;;;;;;6274223;22;20026;-78
2023/10/15 16:03:54;;;;;;;18.98;4.68;;;25.40;69.50;;;;;;6275720;22;20548;-76
2023/10/15 16:06:20;;;;;;;17.40;3.95;;;25.30;69.20;;;;;;6267209;22;20003;-77
2023/10/15 16:08:46;;;;;;;20.05;3.88;;;25.30;69.30;;;;;;6249320;22;20065;-77
2023/10/15 16:11:13;;;;;;;18.95;3.72;;;25.30;69.70;;;;;;6276154;22;20079;-75
2023/10/15 16:13:47;;;;;;;19.52;3.50;;;25.20;69.60;;;;;;6247760;22;20096;-77
2023/10/15 16:16:13;;;;;;;16.80;3.40;;;25.20;68.80;;;;;;6267594;22;20166;-77
2023/10/15 16:18:39;;;;;;;19.48;4.38;;;25.10;69.80;;;;;;6276504;22;20004;-74
2023/10/15 16:21:04;;;;;;;16.63;3.80;;;25.10;70.00;;;;;;6276242;22;20604;-74
2023/10/15 16:23:30;;;;;;;20.98;4.07;;;25.10;70.30;;;;;;6276155;22;20016;-72
2023/10/15 16:25:56;;;;;;;20.00;4.78;;;25.10;70.30;;;;;;6268678;22;20010;-74
2023/10/15 16:28:22;;;;;;;19.05;4.53;;;25.10;70.20;;;;;;6276749;22;20395;-73
2023/10/15 16:30:53;;;;;;;22.17;4.95;;;25.00;69.40;;;;;;6276557;22;20117;-73
2023/10/15 16:33:19;;;;;;;19.88;5.07;;;25.00;70.40;;;;;;6276741;22;20007;-73
2023/10/15 16:35:46;;;;;;;24.73;4.13;;;25.00;69.60;;;;;;6270191;22;20015;-73
2023/10/15 16:38:13;;;;;;;16.45;3.97;;;25.00;69.70;;;;;;6275335;22;19996;-73
2023/10/15 16:40:39;;;;;;;24.05;5.70;;;24.90;69.60;;;;;;6276375;22;20042;-73
2023/10/15 16:43:07;;;;;;;22.38;4.40;;;24.90;69.80;;;;;;6276061;22;20020;-72
2023/10/15 16:45:33;;;;;;;26.02;4.65;;;24.90;69.70;;;;;;6271916;22;20417;-74
2023/10/15 16:47:58;;;;;;;23.92;4.63;;;24.90;69.70;;;;;;6272321;22;20025;-73
2023/10/15 16:50:24;;;;;;;16.98;5.13;;;24.90;69.80;;;;;;6276269;22;20000;-73
2023/10/15 16:52:54;;;;;;;24.55;5.18;;;24.80;70.00;;;;;;6276135;22;20075;-72
2023/10/15 16:55:19;;;;;;;19.20;4.97;;;24.80;70.00;;;;;;6272046;22;20027;-74
2023/10/15 16:57:45;;;;;;;19.33;4.40;;;24.80;69.90;;;;;;6272895;22;20341;-73
2023/10/15 17:00:11;;;;;;;23.27;5.57;;;24.80;69.90;;;;;;6276783;22;19996;-74
2023/10/15 17:02:37;;;;;;;19.50;5.30;;;24.70;69.60;;;;;;6275939;22;20012;-73
2023/10/15 17:05:03;;;;;;;22.38;5.45;;;24.70;69.60;;;;;;6272286;22;20003;-74
2023/10/15 17:07:31;;;;;;;18.90;4.60;;;24.70;69.60;;;;;;6271941;22;20026;-73
2023/10/15 17:09:58;;;;;;;16.73;4.75;;;24.70;69.30;;;;;;6275653;22;20448;-73
2023/10/15 17:12:24;;;;;;;18.25;4.78;;;24.60;69.60;;;;;;6276183;22;20081;-75
2023/10/15 17:14:50;;;;;;;20.38;4.85;;;24.60;69.50;;;;;;6273896;22;20251;-74
2023/10/15 17:17:17;;;;;;;21.75;4.90;;;24.60;69.40;;;;;;6243136;22;20007;-74
2023/10/15 17:19:43;;;;;;;19.58;4.63;;;24.60;69.40;;;;;;6275215;22;20004;-72
2023/10/15 17:22:09;;;;;;;23.48;5.63;;;24.60;69.50;;;;;;6276271;22;20091;-73
2023/10/15 17:24:34;;;;;;;25.92;5.78;;;24.60;69.70;;;;;;6276019;22;20027;-73
2023/10/15 17:27:02;;;;;;;21.88;5.93;;;24.50;69.90;;;;;;6267770;22;20003;-73